createdAt,value
2019-04-30T00:00:34.723Z,11.40
2019-04-30T00:03:39.232Z,11.40
2019-04-30T00:06:27.319Z,11.40
2019-04-30T00:09:15.146Z,11.40
2019-04-30T00:12:00.959Z,11.40
2019-04-30T00:14:45.358Z,11.40
2019-04-30T00:17:29.958Z,11.40
2019-04-30T00:20:15.121Z,11.40
2019-04-30T00:23:01.640Z,11.40
2019-04-30T00:25:46.410Z,11.40
2019-04-30T00:28:31.474Z,11.40
2019-04-30T00:31:17.377Z,11.40
2019-04-30T00:34:02.796Z,11.40
2019-04-30T00:36:47.435Z,11.30
2019-04-30T00:39:32.400Z,11.30
2019-04-30T00:42:24.009Z,11.30
2019-04-30T00:45:09.947Z,11.30
2019-04-30T00:47:53.432Z,11.40
2019-04-30T00:50:38.408Z,11.30
2019-04-30T00:53:23.202Z,11.30
2019-04-30T00:56:08.386Z,11.30
2019-04-30T00:58:57.444Z,11.30
2019-04-30T01:01:48.098Z,11.20
2019-04-30T01:04:34.983Z,11.20
2019-04-30T01:07:20.517Z,11.20
2019-04-30T01:10:07.323Z,11.20
2019-04-30T01:12:51.896Z,11.20
2019-04-30T01:15:36.752Z,11.20
2019-04-30T01:18:23.591Z,11.20
2019-04-30T01:21:11.238Z,11.20
2019-04-30T01:23:55.576Z,11.20
2019-04-30T01:26:40.789Z,11.20
2019-04-30T01:29:26.250Z,11.20
2019-04-30T01:32:17.614Z,11.20
2019-04-30T01:34:58.970Z,11.10
2019-04-30T01:37:43.685Z,11.10
2019-04-30T01:40:28.586Z,11.10
2019-04-30T01:43:13.190Z,11.10
2019-04-30T01:46:01.784Z,11.10
2019-04-30T01:48:50.545Z,11.10
2019-04-30T01:51:32.099Z,11.10
2019-04-30T01:54:21.298Z,11.10
2019-04-30T01:57:06.233Z,11.10
2019-04-30T02:00:01.693Z,11.10
2019-04-30T02:02:46.966Z,11.10
2019-04-30T02:05:31.630Z,11.00
2019-04-30T02:08:16.619Z,11.00
2019-04-30T02:11:01.442Z,11.00
2019-04-30T02:13:49.035Z,10.90
2019-04-30T02:16:33.525Z,10.90
2019-04-30T02:19:18.817Z,10.90
2019-04-30T02:22:03.827Z,10.90
2019-04-30T02:24:48.746Z,10.90
2019-04-30T02:27:33.566Z,10.90
2019-04-30T02:30:20.902Z,10.90
2019-04-30T02:33:05.258Z,10.90
2019-04-30T02:35:51.839Z,10.90
2019-04-30T02:38:41.610Z,10.90
2019-04-30T02:41:29.317Z,10.90
2019-04-30T02:44:15.113Z,10.80
2019-04-30T02:47:00.467Z,10.80
2019-04-30T02:49:46.837Z,10.80
2019-04-30T02:52:35.761Z,10.70
2019-04-30T02:55:30.253Z,10.70
2019-04-30T02:58:14.957Z,10.70
2019-04-30T03:01:00.330Z,10.60
2019-04-30T03:03:45.468Z,10.60
2019-04-30T03:06:30.588Z,10.50
2019-04-30T03:09:15.559Z,10.50
2019-04-30T03:12:00.506Z,10.50
2019-04-30T03:14:45.061Z,10.50
2019-04-30T03:17:47.058Z,10.50
2019-04-30T03:20:46.316Z,10.50
2019-04-30T03:23:31.253Z,10.50
2019-04-30T03:26:16.112Z,10.40
2019-04-30T03:29:01.057Z,10.30
2019-04-30T03:31:46.022Z,10.30
2019-04-30T03:34:32.777Z,10.30
2019-04-30T03:37:19.826Z,10.30
2019-04-30T03:40:09.793Z,10.30
2019-04-30T03:42:53.950Z,10.20
2019-04-30T03:45:40.199Z,10.20
2019-04-30T03:48:25.297Z,10.20
2019-04-30T03:51:10.777Z,10.20
2019-04-30T03:53:55.908Z,10.20
2019-04-30T03:56:41.671Z,10.20
2019-04-30T03:59:26.525Z,10.20
2019-04-30T04:02:13.265Z,10.20
2019-04-30T04:05:02.465Z,10.20
2019-04-30T04:08:01.233Z,10.20
2019-04-30T04:10:52.599Z,10.20
2019-04-30T04:13:34.636Z,10.20
2019-04-30T04:16:19.636Z,10.20
2019-04-30T04:19:04.748Z,10.20
2019-04-30T04:21:50.905Z,10.20
2019-04-30T04:24:35.914Z,10.20
2019-04-30T04:27:20.840Z,10.20
2019-04-30T04:30:06.134Z,10.20
2019-04-30T04:32:51.001Z,10.20
2019-04-30T04:35:35.774Z,10.20
2019-04-30T04:38:20.648Z,10.20
2019-04-30T04:41:05.528Z,10.30
2019-04-30T04:43:50.670Z,10.30
2019-04-30T04:46:35.845Z,10.30
2019-04-30T04:49:20.946Z,10.30
2019-04-30T04:52:05.673Z,10.30
2019-04-30T04:54:51.024Z,10.30
2019-04-30T04:57:36.427Z,10.30
2019-04-30T05:00:21.535Z,10.40
2019-04-30T05:03:09.432Z,10.40
2019-04-30T05:05:54.648Z,10.40
2019-04-30T05:08:39.682Z,10.50
2019-04-30T05:11:24.796Z,10.50
2019-04-30T05:14:10.981Z,10.50
2019-04-30T05:16:55.904Z,10.50
2019-04-30T05:19:41.289Z,10.50
2019-04-30T05:22:25.944Z,10.50
2019-04-30T05:25:10.960Z,10.50
2019-04-30T05:27:56.042Z,10.50
2019-04-30T05:30:40.603Z,10.60
2019-04-30T05:33:25.425Z,10.60
2019-04-30T05:36:10.076Z,10.60
2019-04-30T05:38:55.101Z,10.70
2019-04-30T05:41:41.103Z,10.70
2019-04-30T05:44:25.988Z,10.70
2019-04-30T05:47:10.788Z,10.70
2019-04-30T05:49:55.635Z,10.70
2019-04-30T05:52:40.525Z,10.80
2019-04-30T05:55:25.610Z,10.80
2019-04-30T05:58:10.341Z,10.80
2019-04-30T06:00:55.195Z,10.80
2019-04-30T06:03:40.218Z,10.90
2019-04-30T06:06:25.053Z,10.90
2019-04-30T06:09:30.746Z,10.90
2019-04-30T06:12:08.855Z,10.90
2019-04-30T06:15:04.086Z,11.00
2019-04-30T06:18:00.101Z,11.00
2019-04-30T06:20:38.615Z,11.10
2019-04-30T06:23:23.532Z,11.20
2019-04-30T06:26:10.682Z,11.20
2019-04-30T06:28:55.337Z,11.20
2019-04-30T06:31:43.055Z,11.20
2019-04-30T06:34:29.428Z,11.30
2019-04-30T06:37:14.758Z,11.30
2019-04-30T06:39:59.763Z,11.40
2019-04-30T06:42:45.230Z,11.40
2019-04-30T06:45:30.622Z,11.50
2019-04-30T06:48:16.511Z,11.50
2019-04-30T06:51:01.306Z,11.50
2019-04-30T06:53:48.770Z,11.40
2019-04-30T06:56:33.403Z,11.40
2019-04-30T06:59:17.998Z,11.30
2019-04-30T07:02:03.012Z,11.40
2019-04-30T07:04:49.153Z,11.60
2019-04-30T07:07:38.733Z,11.70
2019-04-30T07:10:23.978Z,11.90
2019-04-30T07:13:10.733Z,11.90
2019-04-30T07:15:55.662Z,12.00
2019-04-30T07:18:40.665Z,12.00
2019-04-30T07:21:25.434Z,12.10
2019-04-30T07:24:10.346Z,12.10
2019-04-30T07:27:00.461Z,12.10
2019-04-30T07:29:42.079Z,12.20
2019-04-30T07:32:28.781Z,12.20
2019-04-30T07:35:13.914Z,12.20
2019-04-30T07:38:03.366Z,12.20
2019-04-30T07:40:45.626Z,12.20
2019-04-30T07:43:30.620Z,12.30
2019-04-30T07:46:15.645Z,12.30
2019-04-30T07:49:00.442Z,12.30
2019-04-30T07:51:46.153Z,12.30
2019-04-30T07:54:31.250Z,12.30
2019-04-30T07:57:16.053Z,12.30
2019-04-30T08:00:00.787Z,12.30
2019-04-30T08:02:50.560Z,12.40
2019-04-30T08:05:43.701Z,12.50
2019-04-30T08:08:30.323Z,12.50
2019-04-30T08:11:23.847Z,12.60
2019-04-30T08:14:02.558Z,12.70
2019-04-30T08:16:48.507Z,12.80
2019-04-30T08:19:35.051Z,12.80
2019-04-30T08:22:20.004Z,12.80
2019-04-30T08:25:05.290Z,12.80
2019-04-30T08:27:49.880Z,12.80
2019-04-30T08:30:34.808Z,12.70
2019-04-30T08:33:19.611Z,12.80
2019-04-30T08:36:04.688Z,12.90
2019-04-30T08:38:49.685Z,12.90
2019-04-30T08:41:34.651Z,13.00
2019-04-30T08:44:21.233Z,13.10
2019-04-30T08:47:06.273Z,13.10
2019-04-30T08:49:51.160Z,13.30
2019-04-30T08:52:35.924Z,13.40
2019-04-30T08:55:22.491Z,13.30
2019-04-30T08:58:12.478Z,13.30
2019-04-30T09:00:54.613Z,13.30
2019-04-30T09:03:39.513Z,13.30
2019-04-30T09:06:25.026Z,13.30
2019-04-30T09:09:11.657Z,13.30
2019-04-30T09:11:56.499Z,13.30
2019-04-30T09:14:41.269Z,13.30
2019-04-30T09:17:26.282Z,13.40
2019-04-30T09:20:10.967Z,13.50
2019-04-30T09:22:55.870Z,13.50
2019-04-30T09:25:40.637Z,13.50
2019-04-30T09:28:25.499Z,13.50
2019-04-30T09:31:10.296Z,13.30
2019-04-30T09:33:57.858Z,13.30
2019-04-30T09:36:42.135Z,13.30
2019-04-30T09:39:26.867Z,13.30
2019-04-30T09:42:11.778Z,13.20
2019-04-30T09:44:59.092Z,13.30
2019-04-30T09:47:43.509Z,13.20
2019-04-30T09:50:29.165Z,13.30
2019-04-30T09:53:14.248Z,13.40
2019-04-30T09:55:59.658Z,13.40
2019-04-30T09:58:44.613Z,13.30
2019-04-30T10:01:31.862Z,13.30
2019-04-30T10:04:16.520Z,13.40
2019-04-30T10:07:02.094Z,13.40
2019-04-30T10:09:50.654Z,13.40
2019-04-30T10:12:33.799Z,13.40
2019-04-30T10:15:26.576Z,13.40
2019-04-30T10:18:11.469Z,13.30
2019-04-30T10:20:56.437Z,13.40
2019-04-30T10:23:41.283Z,13.40
2019-04-30T10:26:26.408Z,13.40
2019-04-30T10:29:11.101Z,13.50
2019-04-30T10:31:55.991Z,13.50
2019-04-30T10:34:40.672Z,13.40
2019-04-30T10:37:25.773Z,13.50
2019-04-30T10:40:10.745Z,13.70
2019-04-30T10:42:55.438Z,13.80
2019-04-30T10:45:40.319Z,13.80
2019-04-30T10:48:25.386Z,13.90
2019-04-30T10:51:10.347Z,14.00
2019-04-30T10:53:55.243Z,14.20
2019-04-30T10:56:39.949Z,14.60
2019-04-30T10:59:24.893Z,14.80
2019-04-30T11:02:09.694Z,15.00
2019-04-30T11:04:54.501Z,15.00
2019-04-30T11:07:39.537Z,15.30
2019-04-30T11:10:25.366Z,15.70
2019-04-30T11:13:10.244Z,16.00
2019-04-30T11:15:55.313Z,16.40
2019-04-30T11:18:40.091Z,16.70
2019-04-30T11:21:25.019Z,17.20
2019-04-30T11:24:10.416Z,17.70
2019-04-30T11:26:55.723Z,18.70
2019-04-30T11:29:41.346Z,20.80
2019-04-30T11:32:26.563Z,22.90
2019-04-30T11:35:12.229Z,24.00
2019-04-30T11:37:57.400Z,24.90
2019-04-30T11:40:43.021Z,25.80
2019-04-30T11:43:29.410Z,26.70
2019-04-30T11:46:23.778Z,27.70
2019-04-30T11:49:09.686Z,28.70
2019-04-30T11:51:54.712Z,29.40
2019-04-30T11:54:49.140Z,30.20
2019-04-30T11:57:26.349Z,30.60
2019-04-30T12:00:15.710Z,31.00
2019-04-30T12:03:00.576Z,31.30
2019-04-30T12:05:45.175Z,31.60
2019-04-30T12:08:32.206Z,30.90
2019-04-30T12:11:27.970Z,30.60
2019-04-30T12:14:12.840Z,30.90
2019-04-30T12:16:57.863Z,31.00
2019-04-30T12:19:42.945Z,30.80
2019-04-30T12:22:29.483Z,31.10
2019-04-30T12:25:14.719Z,31.10
2019-04-30T12:27:59.632Z,31.20
2019-04-30T12:30:44.643Z,31.20
2019-04-30T12:33:29.638Z,31.10
2019-04-30T12:36:14.492Z,30.70
2019-04-30T12:38:59.519Z,30.00
2019-04-30T12:41:44.200Z,29.70
2019-04-30T12:44:29.055Z,29.50
2019-04-30T12:47:13.855Z,29.30
2019-04-30T12:50:15.668Z,29.00
2019-04-30T12:53:11.329Z,29.10
2019-04-30T12:56:10.246Z,28.70
2019-04-30T12:58:54.963Z,28.60
2019-04-30T13:01:21.276Z,28.60
2019-04-30T13:03:56.645Z,28.60
2019-04-30T13:06:16.226Z,28.50
2019-04-30T13:08:43.367Z,28.30
2019-04-30T13:11:12.726Z,28.30
2019-04-30T13:13:40.552Z,28.50
2019-04-30T13:16:08.521Z,28.90
2019-04-30T13:18:53.681Z,29.10
2019-04-30T13:21:39.575Z,29.10
2019-04-30T13:24:25.255Z,29.40
2019-04-30T13:27:10.141Z,29.30
2019-04-30T13:30:02.634Z,29.00
2019-04-30T13:32:51.893Z,28.80
2019-04-30T13:35:38.880Z,28.90
2019-04-30T13:38:31.477Z,29.30
2019-04-30T13:41:34.534Z,29.60
2019-04-30T13:44:21.498Z,29.70
2019-04-30T13:47:06.836Z,29.80
2019-04-30T13:49:51.845Z,29.60
2019-04-30T13:52:36.676Z,29.40
2019-04-30T13:55:21.460Z,29.70
2019-04-30T13:58:06.464Z,30.10
2019-04-30T14:00:51.305Z,30.40
2019-04-30T14:03:39.045Z,30.20
2019-04-30T14:06:26.004Z,30.10
2019-04-30T14:09:24.959Z,30.30
2019-04-30T14:12:09.723Z,30.50
2019-04-30T14:14:54.519Z,30.80
2019-04-30T14:17:40.152Z,31.20
2019-04-30T14:20:25.802Z,30.90
2019-04-30T14:23:10.692Z,30.40
2019-04-30T14:25:37.092Z,29.60
2019-04-30T14:28:03.920Z,28.80
2019-04-30T14:30:30.091Z,27.90
2019-04-30T14:32:56.272Z,27.00
2019-04-30T14:35:22.434Z,26.20
2019-04-30T14:37:49.622Z,25.50
2019-04-30T14:40:17.124Z,24.70
2019-04-30T14:43:11.583Z,24.00
2019-04-30T14:46:04.996Z,23.30
2019-04-30T14:48:55.639Z,22.60
2019-04-30T14:51:41.209Z,22.10
2019-04-30T14:54:28.063Z,21.70
2019-04-30T14:57:26.696Z,21.40
2019-04-30T15:00:32.012Z,21.10
2019-04-30T15:03:19.432Z,20.80
2019-04-30T15:06:04.623Z,20.60
2019-04-30T15:08:49.615Z,20.50
2019-04-30T15:11:35.996Z,20.50
2019-04-30T15:14:20.579Z,20.50
2019-04-30T15:17:05.397Z,20.40
2019-04-30T15:19:54.267Z,20.40
2019-04-30T15:22:38.998Z,20.30
2019-04-30T15:25:24.159Z,20.20
2019-04-30T15:28:09.832Z,20.10
2019-04-30T15:30:54.840Z,20.10
2019-04-30T15:33:41.746Z,20.00
2019-04-30T15:36:26.596Z,19.90
2019-04-30T15:39:16.155Z,19.90
2019-04-30T15:42:01.101Z,19.80
2019-04-30T15:44:46.643Z,19.80
2019-04-30T15:47:31.432Z,19.70
2019-04-30T15:50:16.364Z,19.60
2019-04-30T15:53:01.396Z,19.50
2019-04-30T15:55:46.423Z,19.60
2019-04-30T15:58:32.815Z,19.60
2019-04-30T16:01:19.244Z,19.50
2019-04-30T16:04:04.310Z,19.50
2019-04-30T16:06:49.212Z,19.50
2019-04-30T16:09:44.608Z,19.40
2019-04-30T16:12:31.429Z,19.40
2019-04-30T16:15:18.477Z,19.30
2019-04-30T16:18:04.497Z,19.30
2019-04-30T16:20:49.860Z,19.20
2019-04-30T16:23:34.557Z,19.20
2019-04-30T16:26:19.251Z,19.10
2019-04-30T16:29:04.296Z,19.10
2019-04-30T16:31:49.518Z,19.10
2019-04-30T16:34:34.215Z,19.10
2019-04-30T16:37:20.204Z,19.10
2019-04-30T16:40:05.981Z,19.10
2019-04-30T16:42:50.973Z,19.10
2019-04-30T16:45:35.860Z,19.10
2019-04-30T16:48:20.623Z,19.20
2019-04-30T16:51:05.690Z,19.20
2019-04-30T16:53:50.325Z,19.20
2019-04-30T16:56:35.280Z,19.20
2019-04-30T16:59:24.840Z,19.20
2019-04-30T17:02:09.892Z,19.20
2019-04-30T17:04:59.616Z,19.20
2019-04-30T17:08:04.759Z,19.20
2019-04-30T17:10:51.636Z,19.10
2019-04-30T17:13:38.967Z,19.00
2019-04-30T17:16:24.197Z,18.90
2019-04-30T17:19:09.423Z,18.80
2019-04-30T17:21:54.299Z,18.60
2019-04-30T17:24:39.473Z,18.50
2019-04-30T17:27:24.510Z,18.40
2019-04-30T17:30:11.037Z,18.30
2019-04-30T17:32:56.161Z,18.20
2019-04-30T17:35:41.016Z,18.10
2019-04-30T17:38:26.167Z,18.00
2019-04-30T17:41:10.988Z,17.90
2019-04-30T17:43:55.842Z,17.80
2019-04-30T17:46:40.738Z,17.70
2019-04-30T17:49:25.629Z,17.60
2019-04-30T17:52:10.412Z,17.50
2019-04-30T17:54:55.236Z,17.40
2019-04-30T17:57:40.438Z,17.30
2019-04-30T18:00:29.175Z,17.10
2019-04-30T18:03:13.901Z,17.00
2019-04-30T18:05:59.272Z,17.00
2019-04-30T18:08:44.110Z,16.90
2019-04-30T18:11:29.624Z,16.80
2019-04-30T18:14:14.907Z,16.70
2019-04-30T18:16:59.651Z,16.60
2019-04-30T18:19:49.714Z,16.60
2019-04-30T18:22:45.789Z,16.50
2019-04-30T18:25:35.157Z,16.40
2019-04-30T18:28:19.897Z,16.30
2019-04-30T18:31:04.740Z,16.20
2019-04-30T18:33:51.426Z,16.10
2019-04-30T18:36:36.348Z,16.00
2019-04-30T18:39:21.208Z,15.90
2019-04-30T18:42:06.202Z,15.80
2019-04-30T18:44:51.230Z,15.70
2019-04-30T18:47:35.991Z,15.60
2019-04-30T18:50:20.920Z,15.50
2019-04-30T18:53:08.699Z,15.40
2019-04-30T18:55:53.729Z,15.30
2019-04-30T18:58:42.253Z,15.20
2019-04-30T19:01:25.573Z,15.10
2019-04-30T19:04:11.850Z,15.10
2019-04-30T19:06:58.872Z,14.90
2019-04-30T19:09:45.655Z,14.80
2019-04-30T19:12:41.208Z,14.70
2019-04-30T19:16:14.716Z,14.60
2019-04-30T19:18:33.733Z,14.50
2019-04-30T19:21:19.451Z,14.40
2019-04-30T19:24:04.268Z,14.30
2019-04-30T19:26:48.989Z,14.20
2019-04-30T19:29:33.990Z,14.10
2019-04-30T19:32:18.844Z,14.10
2019-04-30T19:35:06.013Z,14.00
2019-04-30T19:37:50.500Z,13.90
2019-04-30T19:40:35.100Z,13.90
2019-04-30T19:43:19.713Z,13.90
2019-04-30T19:46:04.326Z,13.70
2019-04-30T19:48:50.720Z,13.70
2019-04-30T19:51:35.585Z,13.60
2019-04-30T19:54:20.568Z,13.60
2019-04-30T19:57:05.405Z,13.50
2019-04-30T19:59:50.316Z,13.40
2019-04-30T20:02:35.049Z,13.30
2019-04-30T20:05:19.799Z,13.20
2019-04-30T20:08:04.640Z,13.20
2019-04-30T20:10:49.682Z,13.10
2019-04-30T20:13:37.235Z,13.00
2019-04-30T20:16:21.910Z,12.90
2019-04-30T20:19:09.041Z,12.90
2019-04-30T20:21:54.130Z,12.80
2019-04-30T20:24:39.451Z,12.70
2019-04-30T20:27:24.100Z,12.60
2019-04-30T20:30:09.597Z,12.60
2019-04-30T20:32:55.108Z,12.50
2019-04-30T20:35:41.139Z,12.50
2019-04-30T20:38:34.265Z,12.50
2019-04-30T20:41:18.999Z,12.40
2019-04-30T20:44:04.003Z,12.30
2019-04-30T20:46:49.158Z,12.30
2019-04-30T20:49:34.646Z,12.20
2019-04-30T20:52:20.699Z,12.20
2019-04-30T20:55:06.317Z,12.10
2019-04-30T20:57:51.264Z,12.00
2019-04-30T21:00:36.190Z,12.00
2019-04-30T21:03:21.218Z,11.90
2019-04-30T21:06:06.062Z,11.90
2019-04-30T21:08:51.319Z,11.90
2019-04-30T21:11:36.214Z,11.90
2019-04-30T21:14:21.046Z,11.80
2019-04-30T21:17:05.832Z,11.80
2019-04-30T21:19:50.566Z,11.70
2019-04-30T21:22:35.612Z,11.70
2019-04-30T21:25:20.600Z,11.70
2019-04-30T21:28:05.595Z,11.70
2019-04-30T21:30:50.526Z,11.70
2019-04-30T21:33:38.473Z,11.70
2019-04-30T21:36:25.164Z,11.70
2019-04-30T21:39:09.561Z,11.60
2019-04-30T21:41:54.446Z,11.60
2019-04-30T21:44:38.869Z,11.70
2019-04-30T21:47:23.704Z,11.70
2019-04-30T21:50:10.220Z,11.60
2019-04-30T21:52:55.226Z,11.60
2019-04-30T21:55:40.108Z,11.60
2019-04-30T21:58:24.492Z,11.50
2019-04-30T22:01:13.131Z,11.60
2019-04-30T22:03:57.723Z,11.60
2019-04-30T22:06:42.291Z,11.60
2019-04-30T22:09:27.091Z,11.50
2019-04-30T22:12:11.484Z,11.40
2019-04-30T22:14:55.931Z,11.40
2019-04-30T22:17:40.360Z,11.40
2019-04-30T22:20:24.991Z,11.30
2019-04-30T22:23:09.482Z,11.30
2019-04-30T22:25:54.603Z,11.40
2019-04-30T22:28:41.291Z,11.40
2019-04-30T22:31:26.100Z,11.40
2019-04-30T22:34:10.696Z,11.50
2019-04-30T22:36:55.398Z,11.50
2019-04-30T22:39:56.772Z,11.50
2019-04-30T22:42:41.038Z,11.50
2019-04-30T22:45:27.702Z,11.50
2019-04-30T22:48:12.193Z,11.50
2019-04-30T22:50:56.842Z,11.50
2019-04-30T22:53:41.414Z,11.50
2019-04-30T22:56:25.984Z,11.40
2019-04-30T22:59:10.454Z,11.40
2019-04-30T23:01:57.092Z,11.50
2019-04-30T23:04:43.726Z,11.50
2019-04-30T23:07:28.682Z,11.50
2019-04-30T23:10:15.362Z,11.50
2019-04-30T23:13:00.507Z,11.50
2019-04-30T23:15:46.357Z,11.50
2019-04-30T23:18:32.273Z,11.50
2019-04-30T23:21:17.268Z,11.50
2019-04-30T23:24:02.723Z,11.40
2019-04-30T23:26:47.526Z,11.40
2019-04-30T23:29:32.413Z,11.40
2019-04-30T23:32:17.450Z,11.40
2019-04-30T23:35:03.535Z,11.40
2019-04-30T23:37:47.972Z,11.40
2019-04-30T23:40:48.795Z,11.40
2019-04-30T23:43:33.477Z,11.40
2019-04-30T23:46:18.119Z,11.30
2019-04-30T23:49:02.914Z,11.30
2019-04-30T23:51:47.250Z,11.30
2019-04-30T23:54:31.745Z,11.30
2019-04-30T23:57:16.319Z,11.30
